sensor_id;sensor_type;location;lat;lon;timestamp;temperature;humidity
18297;DHT22;18066;52.106;5.534;2024-01-06T00:01:16;8.10;99.90
18297;DHT22;18066;52.106;5.534;2024-01-06T00:03:43;7.00;99.90
18297;DHT22;18066;52.106;5.534;2024-01-06T00:06:12;7.20;99.90
18297;DHT22;18066;52.106;5.534;2024-01-06T00:08:39;6.60;99.90
18297;DHT22;18066;52.106;5.534;2024-01-06T00:11:09;8.50;99.90
18297;DHT22;18066;52.106;5.534;2024-01-06T00:13:36;7.20;99.90
18297;DHT22;18066;52.106;5.534;2024-01-06T00:16:03;8.20;99.90
18297;DHT22;18066;52.106;5.534;2024-01-06T00:18:30;7.50;99.90
18297;DHT22;18066;52.106;5.534;2024-01-06T00:20:57;7.10;99.90
18297;DHT22;18066;52.106;5.534;2024-01-06T00:23:24;7.60;99.90
18297;DHT22;18066;52.106;5.534;2024-01-06T00:25:51;8.10;99.90
18297;DHT22;18066;52.106;5.534;2024-01-06T00:28:19;8.80;99.90
18297;DHT22;18066;52.106;5.534;2024-01-06T00:30:46;8.00;99.90
18297;DHT22;18066;52.106;5.534;2024-01-06T00:33:13;7.20;99.90
18297;DHT22;18066;52.106;5.534;2024-01-06T00:35:40;7.50;99.90
18297;DHT22;18066;52.106;5.534;2024-01-06T00:38:07;7.10;99.90
18297;DHT22;18066;52.106;5.534;2024-01-06T00:40:34;7.20;99.90
18297;DHT22;18066;52.106;5.534;2024-01-06T00:43:01;7.00;99.90
18297;DHT22;18066;52.106;5.534;2024-01-06T00:45:30;7.60;99.90
18297;DHT22;18066;52.106;5.534;2024-01-06T00:47:57;7.60;99.90
18297;DHT22;18066;52.106;5.534;2024-01-06T00:50:24;7.20;99.90
18297;DHT22;18066;52.106;5.534;2024-01-06T00:52:53;7.50;99.90
18297;DHT22;18066;52.106;5.534;2024-01-06T00:55:20;7.70;99.90
18297;DHT22;18066;52.106;5.534;2024-01-06T00:57:47;7.90;99.90
18297;DHT22;18066;52.106;5.534;2024-01-06T01:00:14;7.30;99.90
18297;DHT22;18066;52.106;5.534;2024-01-06T01:02:43;6.70;99.90
18297;DHT22;18066;52.106;5.534;2024-01-06T01:05:09;7.10;99.90
18297;DHT22;18066;52.106;5.534;2024-01-06T01:07:36;7.90;99.90
18297;DHT22;18066;52.106;5.534;2024-01-06T01:10:04;7.80;99.90
18297;DHT22;18066;52.106;5.534;2024-01-06T01:12:31;6.30;99.90
18297;DHT22;18066;52.106;5.534;2024-01-06T01:14:58;7.70;99.90
18297;DHT22;18066;52.106;5.534;2024-01-06T01:17:27;6.90;99.90
18297;DHT22;18066;52.106;5.534;2024-01-06T01:19:55;6.60;99.90
18297;DHT22;18066;52.106;5.534;2024-01-06T01:22:22;7.00;99.90
18297;DHT22;18066;52.106;5.534;2024-01-06T01:24:49;6.50;99.90
18297;DHT22;18066;52.106;5.534;2024-01-06T01:27:16;6.60;99.90
18297;DHT22;18066;52.106;5.534;2024-01-06T01:29:43;6.50;99.90
18297;DHT22;18066;52.106;5.534;2024-01-06T01:32:10;6.60;99.90
18297;DHT22;18066;52.106;5.534;2024-01-06T01:34:37;7.50;99.90
18297;DHT22;18066;52.106;5.534;2024-01-06T01:37:06;7.10;99.90
18297;DHT22;18066;52.106;5.534;2024-01-06T01:39:33;5.90;99.90
18297;DHT22;18066;52.106;5.534;2024-01-06T01:41:59;6.90;99.90
18297;DHT22;18066;52.106;5.534;2024-01-06T01:44:26;6.40;99.90
18297;DHT22;18066;52.106;5.534;2024-01-06T01:46:53;6.50;99.90
18297;DHT22;18066;52.106;5.534;2024-01-06T01:49:20;5.60;99.90
18297;DHT22;18066;52.106;5.534;2024-01-06T01:51:48;6.50;99.90
18297;DHT22;18066;52.106;5.534;2024-01-06T01:54:17;5.90;99.90
18297;DHT22;18066;52.106;5.534;2024-01-06T01:56:45;6.20;99.90
18297;DHT22;18066;52.106;5.534;2024-01-06T01:59:15;6.10;99.90
18297;DHT22;18066;52.106;5.534;2024-01-06T02:01:44;5.10;99.90
18297;DHT22;18066;52.106;5.534;2024-01-06T02:04:12;5.60;99.90
18297;DHT22;18066;52.106;5.534;2024-01-06T02:06:39;7.20;99.90
18297;DHT22;18066;52.106;5.534;2024-01-06T02:09:06;7.30;99.90
18297;DHT22;18066;52.106;5.534;2024-01-06T02:11:34;7.00;99.90
18297;DHT22;18066;52.106;5.534;2024-01-06T02:14:01;6.90;99.90
18297;DHT22;18066;52.106;5.534;2024-01-06T02:16:28;6.00;99.90
18297;DHT22;18066;52.106;5.534;2024-01-06T02:18:55;6.60;99.90
18297;DHT22;18066;52.106;5.534;2024-01-06T02:21:23;5.50;99.90
18297;DHT22;18066;52.106;5.534;2024-01-06T02:23:52;7.30;99.90
18297;DHT22;18066;52.106;5.534;2024-01-06T02:26:19;6.70;99.90
18297;DHT22;18066;52.106;5.534;2024-01-06T02:28:46;5.90;99.90
18297;DHT22;18066;52.106;5.534;2024-01-06T02:31:16;6.00;99.90
18297;DHT22;18066;52.106;5.534;2024-01-06T02:33:43;7.60;99.90
18297;DHT22;18066;52.106;5.534;2024-01-06T02:36:10;6.90;99.90
18297;DHT22;18066;52.106;5.534;2024-01-06T02:38:37;7.30;99.90
18297;DHT22;18066;52.106;5.534;2024-01-06T02:41:05;6.90;99.90
18297;DHT22;18066;52.106;5.534;2024-01-06T02:43:32;7.50;99.90
18297;DHT22;18066;52.106;5.534;2024-01-06T02:45:59;8.20;99.90
18297;DHT22;18066;52.106;5.534;2024-01-06T02:48:26;7.40;99.90
18297;DHT22;18066;52.106;5.534;2024-01-06T02:50:56;7.30;99.90
18297;DHT22;18066;52.106;5.534;2024-01-06T02:53:23;6.10;99.90
18297;DHT22;18066;52.106;5.534;2024-01-06T02:55:50;7.20;99.90
18297;DHT22;18066;52.106;5.534;2024-01-06T02:58:18;7.20;99.90
18297;DHT22;18066;52.106;5.534;2024-01-06T03:00:45;6.70;99.90
18297;DHT22;18066;52.106;5.534;2024-01-06T03:03:12;7.10;99.90
18297;DHT22;18066;52.106;5.534;2024-01-06T03:05:39;5.90;99.90
18297;DHT22;18066;52.106;5.534;2024-01-06T03:08:07;7.70;99.90
18297;DHT22;18066;52.106;5.534;2024-01-06T03:10:34;6.30;99.90
18297;DHT22;18066;52.106;5.534;2024-01-06T03:13:01;6.10;99.90
18297;DHT22;18066;52.106;5.534;2024-01-06T03:15:30;6.30;99.90
18297;DHT22;18066;52.106;5.534;2024-01-06T03:17:57;6.60;99.90
18297;DHT22;18066;52.106;5.534;2024-01-06T03:20:24;7.00;99.90
18297;DHT22;18066;52.106;5.534;2024-01-06T03:22:51;6.10;99.90
18297;DHT22;18066;52.106;5.534;2024-01-06T03:25:18;7.60;99.90
18297;DHT22;18066;52.106;5.534;2024-01-06T03:27:45;7.40;99.90
18297;DHT22;18066;52.106;5.534;2024-01-06T03:30:12;6.20;99.90
18297;DHT22;18066;52.106;5.534;2024-01-06T03:32:41;6.30;99.90
18297;DHT22;18066;52.106;5.534;2024-01-06T03:35:08;6.40;99.90
18297;DHT22;18066;52.106;5.534;2024-01-06T03:37:35;7.00;99.90
18297;DHT22;18066;52.106;5.534;2024-01-06T03:40:02;5.90;99.90
18297;DHT22;18066;52.106;5.534;2024-01-06T03:42:29;6.30;99.90
18297;DHT22;18066;52.106;5.534;2024-01-06T03:44:55;5.70;99.90
18297;DHT22;18066;52.106;5.534;2024-01-06T03:47:22;7.20;99.90
18297;DHT22;18066;52.106;5.534;2024-01-06T03:49:51;6.00;99.90
18297;DHT22;18066;52.106;5.534;2024-01-06T03:52:18;6.00;99.90
18297;DHT22;18066;52.106;5.534;2024-01-06T03:54:45;6.90;99.90
18297;DHT22;18066;52.106;5.534;2024-01-06T03:57:12;6.00;99.90
18297;DHT22;18066;52.106;5.534;2024-01-06T03:59:39;6.30;99.90
18297;DHT22;18066;52.106;5.534;2024-01-06T04:02:06;5.60;99.90
18297;DHT22;18066;52.106;5.534;2024-01-06T04:04:32;5.60;99.90
18297;DHT22;18066;52.106;5.534;2024-01-06T04:07:00;5.80;99.90
18297;DHT22;18066;52.106;5.534;2024-01-06T04:09:28;6.50;99.90
18297;DHT22;18066;52.106;5.534;2024-01-06T04:11:54;5.90;99.90
18297;DHT22;18066;52.106;5.534;2024-01-06T04:14:21;5.80;99.90
18297;DHT22;18066;52.106;5.534;2024-01-06T04:16:48;6.10;99.90
18297;DHT22;18066;52.106;5.534;2024-01-06T04:19:15;6.80;99.90
18297;DHT22;18066;52.106;5.534;2024-01-06T04:21:42;7.10;99.90
18297;DHT22;18066;52.106;5.534;2024-01-06T04:24:10;7.00;99.90
18297;DHT22;18066;52.106;5.534;2024-01-06T04:26:37;6.50;99.90
18297;DHT22;18066;52.106;5.534;2024-01-06T04:29:04;6.50;99.90
18297;DHT22;18066;52.106;5.534;2024-01-06T04:31:31;5.30;99.90
18297;DHT22;18066;52.106;5.534;2024-01-06T04:33:58;6.00;99.90
18297;DHT22;18066;52.106;5.534;2024-01-06T04:36:25;5.20;99.90
18297;DHT22;18066;52.106;5.534;2024-01-06T04:38:52;6.50;99.90
18297;DHT22;18066;52.106;5.534;2024-01-06T04:41:20;6.00;99.90
18297;DHT22;18066;52.106;5.534;2024-01-06T04:43:47;6.10;99.90
18297;DHT22;18066;52.106;5.534;2024-01-06T04:46:14;6.10;99.90
18297;DHT22;18066;52.106;5.534;2024-01-06T04:48:41;4.90;99.90
18297;DHT22;18066;52.106;5.534;2024-01-06T04:51:09;6.70;99.90
18297;DHT22;18066;52.106;5.534;2024-01-06T04:53:36;5.00;99.90
18297;DHT22;18066;52.106;5.534;2024-01-06T04:56:04;4.70;99.90
18297;DHT22;18066;52.106;5.534;2024-01-06T04:58:32;5.00;99.90
18297;DHT22;18066;52.106;5.534;2024-01-06T05:01:00;6.00;99.90
18297;DHT22;18066;52.106;5.534;2024-01-06T05:03:27;6.00;99.90
18297;DHT22;18066;52.106;5.534;2024-01-06T05:05:54;6.60;99.90
18297;DHT22;18066;52.106;5.534;2024-01-06T05:08:21;6.40;99.90
18297;DHT22;18066;52.106;5.534;2024-01-06T05:10:48;6.70;99.90
18297;DHT22;18066;52.106;5.534;2024-01-06T05:13:15;6.30;99.90
18297;DHT22;18066;52.106;5.534;2024-01-06T05:15:44;5.90;99.90
18297;DHT22;18066;52.106;5.534;2024-01-06T05:18:11;5.80;99.90
18297;DHT22;18066;52.106;5.534;2024-01-06T05:20:38;6.50;99.90
18297;DHT22;18066;52.106;5.534;2024-01-06T05:23:06;5.50;99.90
18297;DHT22;18066;52.106;5.534;2024-01-06T05:25:33;5.50;99.90
18297;DHT22;18066;52.106;5.534;2024-01-06T05:28:00;5.60;99.90
18297;DHT22;18066;52.106;5.534;2024-01-06T05:30:27;6.00;99.90
18297;DHT22;18066;52.106;5.534;2024-01-06T05:32:56;6.00;99.90
18297;DHT22;18066;52.106;5.534;2024-01-06T05:35:23;5.60;99.90
18297;DHT22;18066;52.106;5.534;2024-01-06T05:37:49;5.20;99.90
18297;DHT22;18066;52.106;5.534;2024-01-06T05:40:16;6.30;99.90
18297;DHT22;18066;52.106;5.534;2024-01-06T05:42:43;5.70;99.90
18297;DHT22;18066;52.106;5.534;2024-01-06T05:45:10;4.60;99.90
18297;DHT22;18066;52.106;5.534;2024-01-06T05:47:38;4.80;99.90
18297;DHT22;18066;52.106;5.534;2024-01-06T05:50:07;5.30;99.90
18297;DHT22;18066;52.106;5.534;2024-01-06T05:52:35;4.90;99.90
18297;DHT22;18066;52.106;5.534;2024-01-06T05:55:03;5.10;99.90
18297;DHT22;18066;52.106;5.534;2024-01-06T05:57:30;4.60;99.90
18297;DHT22;18066;52.106;5.534;2024-01-06T05:59:57;5.90;99.90
18297;DHT22;18066;52.106;5.534;2024-01-06T06:02:24;5.00;99.90
18297;DHT22;18066;52.106;5.534;2024-01-06T06:04:51;5.40;99.90
18297;DHT22;18066;52.106;5.534;2024-01-06T06:07:20;5.40;99.90
18297;DHT22;18066;52.106;5.534;2024-01-06T06:09:47;5.10;99.90
18297;DHT22;18066;52.106;5.534;2024-01-06T06:12:14;6.00;99.90
18297;DHT22;18066;52.106;5.534;2024-01-06T06:14:41;4.70;99.90
18297;DHT22;18066;52.106;5.534;2024-01-06T06:17:08;5.30;99.90
18297;DHT22;18066;52.106;5.534;2024-01-06T06:19:35;3.90;99.90
18297;DHT22;18066;52.106;5.534;2024-01-06T06:22:01;5.60;99.90
18297;DHT22;18066;52.106;5.534;2024-01-06T06:24:30;4.40;99.90
18297;DHT22;18066;52.106;5.534;2024-01-06T06:26:56;3.90;99.90
18297;DHT22;18066;52.106;5.534;2024-01-06T06:29:23;5.20;99.90
18297;DHT22;18066;52.106;5.534;2024-01-06T06:31:50;5.60;99.90
18297;DHT22;18066;52.106;5.534;2024-01-06T06:34:17;5.80;99.90
18297;DHT22;18066;52.106;5.534;2024-01-06T06:36:44;5.90;99.90
18297;DHT22;18066;52.106;5.534;2024-01-06T06:39:11;5.90;99.90
18297;DHT22;18066;52.106;5.534;2024-01-06T06:41:40;5.00;99.90
18297;DHT22;18066;52.106;5.534;2024-01-06T06:44:06;4.40;99.90
18297;DHT22;18066;52.106;5.534;2024-01-06T06:46:33;5.10;99.90
18297;DHT22;18066;52.106;5.534;2024-01-06T06:49:00;5.60;99.90
18297;DHT22;18066;52.106;5.534;2024-01-06T06:51:27;5.40;99.90
18297;DHT22;18066;52.106;5.534;2024-01-06T06:53:56;4.60;99.90
18297;DHT22;18066;52.106;5.534;2024-01-06T06:56:24;5.60;99.90
18297;DHT22;18066;52.106;5.534;2024-01-06T06:58:52;6.10;99.90
18297;DHT22;18066;52.106;5.534;2024-01-06T07:01:19;5.30;99.90
18297;DHT22;18066;52.106;5.534;2024-01-06T07:03:46;5.80;99.90
18297;DHT22;18066;52.106;5.534;2024-01-06T07:06:13;4.70;99.90
18297;DHT22;18066;52.106;5.534;2024-01-06T07:08:40;5.70;99.90
18297;DHT22;18066;52.106;5.534;2024-01-06T07:11:08;5.90;99.90
18297;DHT22;18066;52.106;5.534;2024-01-06T07:13:34;4.40;99.90
18297;DHT22;18066;52.106;5.534;2024-01-06T07:16:03;5.80;99.90
18297;DHT22;18066;52.106;5.534;2024-01-06T07:18:31;4.90;99.90
18297;DHT22;18066;52.106;5.534;2024-01-06T07:20:58;6.50;99.90
18297;DHT22;18066;52.106;5.534;2024-01-06T07:23:25;5.00;99.90
18297;DHT22;18066;52.106;5.534;2024-01-06T07:25:52;5.20;99.90
18297;DHT22;18066;52.106;5.534;2024-01-06T07:28:19;5.90;99.90
18297;DHT22;18066;52.106;5.534;2024-01-06T07:30:46;5.60;99.90
18297;DHT22;18066;52.106;5.534;2024-01-06T07:33:14;5.90;99.90
18297;DHT22;18066;52.106;5.534;2024-01-06T07:35:41;5.30;99.90
18297;DHT22;18066;52.106;5.534;2024-01-06T07:38:09;5.10;99.90
18297;DHT22;18066;52.106;5.534;2024-01-06T07:40:36;4.20;99.90
18297;DHT22;18066;52.106;5.534;2024-01-06T07:43:03;5.60;99.90
18297;DHT22;18066;52.106;5.534;2024-01-06T07:45:31;5.80;99.90
18297;DHT22;18066;52.106;5.534;2024-01-06T07:47:58;5.70;99.90
18297;DHT22;18066;52.106;5.534;2024-01-06T07:50:27;5.70;99.90
18297;DHT22;18066;52.106;5.534;2024-01-06T07:52:54;5.80;99.90
18297;DHT22;18066;52.106;5.534;2024-01-06T07:55:21;5.70;99.90
18297;DHT22;18066;52.106;5.534;2024-01-06T07:57:48;5.50;99.90
18297;DHT22;18066;52.106;5.534;2024-01-06T08:00:15;4.30;99.90
18297;DHT22;18066;52.106;5.534;2024-01-06T08:02:42;4.20;99.90
18297;DHT22;18066;52.106;5.534;2024-01-06T08:05:09;3.80;99.90
18297;DHT22;18066;52.106;5.534;2024-01-06T08:07:37;5.10;99.90
18297;DHT22;18066;52.106;5.534;2024-01-06T08:10:05;4.90;99.90
18297;DHT22;18066;52.106;5.534;2024-01-06T08:12:34;4.10;99.90
18297;DHT22;18066;52.106;5.534;2024-01-06T08:15:01;5.50;99.90
18297;DHT22;18066;52.106;5.534;2024-01-06T08:17:30;4.30;99.90
18297;DHT22;18066;52.106;5.534;2024-01-06T08:20:11;4.90;99.90
18297;DHT22;18066;52.106;5.534;2024-01-06T08:22:39;3.80;99.90
18297;DHT22;18066;52.106;5.534;2024-01-06T08:25:06;4.50;99.90
18297;DHT22;18066;52.106;5.534;2024-01-06T08:27:34;4.10;99.90
18297;DHT22;18066;52.106;5.534;2024-01-06T08:30:01;4.40;99.90
18297;DHT22;18066;52.106;5.534;2024-01-06T08:32:27;5.40;99.90
18297;DHT22;18066;52.106;5.534;2024-01-06T08:34:54;5.10;99.90
18297;DHT22;18066;52.106;5.534;2024-01-06T08:37:21;3.90;99.90
18297;DHT22;18066;52.106;5.534;2024-01-06T08:39:50;4.30;99.90
18297;DHT22;18066;52.106;5.534;2024-01-06T08:42:16;4.70;99.90
18297;DHT22;18066;52.106;5.534;2024-01-06T08:44:44;5.20;99.90
18297;DHT22;18066;52.106;5.534;2024-01-06T08:47:12;4.60;99.90
18297;DHT22;18066;52.106;5.534;2024-01-06T08:49:39;4.20;99.90
18297;DHT22;18066;52.106;5.534;2024-01-06T08:52:06;5.30;99.90
18297;DHT22;18066;52.106;5.534;2024-01-06T08:54:33;4.60;99.90
18297;DHT22;18066;52.106;5.534;2024-01-06T08:57:01;5.50;99.90
18297;DHT22;18066;52.106;5.534;2024-01-06T08:59:28;4.10;99.90
18297;DHT22;18066;52.106;5.534;2024-01-06T09:01:55;5.30;99.90
18297;DHT22;18066;52.106;5.534;2024-01-06T09:04:22;6.10;99.90
18297;DHT22;18066;52.106;5.534;2024-01-06T09:06:49;6.30;99.90
18297;DHT22;18066;52.106;5.534;2024-01-06T09:09:16;4.90;99.90
18297;DHT22;18066;52.106;5.534;2024-01-06T09:11:43;4.20;99.90
18297;DHT22;18066;52.106;5.534;2024-01-06T09:14:13;4.80;99.90
18297;DHT22;18066;52.106;5.534;2024-01-06T09:16:40;6.40;99.90
18297;DHT22;18066;52.106;5.534;2024-01-06T09:19:07;6.20;99.90
18297;DHT22;18066;52.106;5.534;2024-01-06T09:21:34;5.40;99.90
18297;DHT22;18066;52.106;5.534;2024-01-06T09:24:01;5.80;99.90
18297;DHT22;18066;52.106;5.534;2024-01-06T09:26:31;5.20;99.90
18297;DHT22;18066;52.106;5.534;2024-01-06T09:28:59;5.00;99.90
18297;DHT22;18066;52.106;5.534;2024-01-06T09:31:27;4.40;99.90
18297;DHT22;18066;52.106;5.534;2024-01-06T09:33:54;4.90;99.90
18297;DHT22;18066;52.106;5.534;2024-01-06T09:36:21;5.80;99.90
18297;DHT22;18066;52.106;5.534;2024-01-06T09:38:48;5.80;99.90
18297;DHT22;18066;52.106;5.534;2024-01-06T09:41:15;6.00;99.90
18297;DHT22;18066;52.106;5.534;2024-01-06T09:43:42;5.70;99.90
18297;DHT22;18066;52.106;5.534;2024-01-06T09:46:14;6.00;99.90
18297;DHT22;18066;52.106;5.534;2024-01-06T09:48:45;5.20;99.90
18297;DHT22;18066;52.106;5.534;2024-01-06T09:51:13;5.60;99.90
18297;DHT22;18066;52.106;5.534;2024-01-06T09:53:56;4.80;99.90
18297;DHT22;18066;52.106;5.534;2024-01-06T09:56:24;5.70;99.90
18297;DHT22;18066;52.106;5.534;2024-01-06T09:58:51;5.90;99.90
18297;DHT22;18066;52.106;5.534;2024-01-06T10:01:21;5.60;99.90
18297;DHT22;18066;52.106;5.534;2024-01-06T10:03:49;5.40;99.90
18297;DHT22;18066;52.106;5.534;2024-01-06T10:06:17;5.50;99.90
18297;DHT22;18066;52.106;5.534;2024-01-06T10:08:44;4.40;99.90
18297;DHT22;18066;52.106;5.534;2024-01-06T10:11:11;5.60;99.90
18297;DHT22;18066;52.106;5.534;2024-01-06T10:13:38;4.70;99.90
18297;DHT22;18066;52.106;5.534;2024-01-06T10:16:05;4.80;99.90
18297;DHT22;18066;52.106;5.534;2024-01-06T10:18:32;4.60;99.90
18297;DHT22;18066;52.106;5.534;2024-01-06T10:21:03;5.80;99.90
18297;DHT22;18066;52.106;5.534;2024-01-06T10:23:32;4.30;99.90
18297;DHT22;18066;52.106;5.534;2024-01-06T10:25:59;5.90;99.90
18297;DHT22;18066;52.106;5.534;2024-01-06T10:28:27;5.60;99.90
18297;DHT22;18066;52.106;5.534;2024-01-06T10:30:54;5.70;99.90
18297;DHT22;18066;52.106;5.534;2024-01-06T10:33:21;6.50;99.90
18297;DHT22;18066;52.106;5.534;2024-01-06T10:35:49;5.80;99.90
18297;DHT22;18066;52.106;5.534;2024-01-06T10:38:17;5.80;99.90
18297;DHT22;18066;52.106;5.534;2024-01-06T10:40:56;4.40;99.90
18297;DHT22;18066;52.106;5.534;2024-01-06T10:43:25;5.80;99.90
18297;DHT22;18066;52.106;5.534;2024-01-06T10:45:53;5.60;99.90
18297;DHT22;18066;52.106;5.534;2024-01-06T10:48:24;5.70;99.90
18297;DHT22;18066;52.106;5.534;2024-01-06T10:50:52;4.90;99.90
18297;DHT22;18066;52.106;5.534;2024-01-06T10:53:22;4.50;99.90
18297;DHT22;18066;52.106;5.534;2024-01-06T10:55:52;5.90;99.90
18297;DHT22;18066;52.106;5.534;2024-01-06T10:58:19;4.70;99.90
18297;DHT22;18066;52.106;5.534;2024-01-06T11:00:47;4.60;99.90
18297;DHT22;18066;52.106;5.534;2024-01-06T11:03:14;4.80;99.90
18297;DHT22;18066;52.106;5.534;2024-01-06T11:05:41;4.80;99.90
18297;DHT22;18066;52.106;5.534;2024-01-06T11:08:09;5.80;99.90
18297;DHT22;18066;52.106;5.534;2024-01-06T11:10:40;5.30;99.90
18297;DHT22;18066;52.106;5.534;2024-01-06T11:13:11;5.10;99.90
18297;DHT22;18066;52.106;5.534;2024-01-06T11:15:40;5.50;99.90
18297;DHT22;18066;52.106;5.534;2024-01-06T11:18:07;5.20;99.90
18297;DHT22;18066;52.106;5.534;2024-01-06T11:20:34;4.60;99.90
18297;DHT22;18066;52.106;5.534;2024-01-06T11:23:19;4.50;99.90
18297;DHT22;18066;52.106;5.534;2024-01-06T11:26:12;4.60;99.90
18297;DHT22;18066;52.106;5.534;2024-01-06T11:28:44;5.00;99.90
18297;DHT22;18066;52.106;5.534;2024-01-06T11:31:12;5.50;99.90
18297;DHT22;18066;52.106;5.534;2024-01-06T11:33:42;6.30;99.90
18297;DHT22;18066;52.106;5.534;2024-01-06T11:36:09;5.80;99.90
18297;DHT22;18066;52.106;5.534;2024-01-06T11:38:39;6.10;99.90
18297;DHT22;18066;52.106;5.534;2024-01-06T11:41:07;5.10;99.90
18297;DHT22;18066;52.106;5.534;2024-01-06T11:43:38;5.30;99.90
18297;DHT22;18066;52.106;5.534;2024-01-06T11:46:06;5.30;99.90
18297;DHT22;18066;52.106;5.534;2024-01-06T11:48:34;5.30;99.90
18297;DHT22;18066;52.106;5.534;2024-01-06T11:51:03;5.30;99.90
18297;DHT22;18066;52.106;5.534;2024-01-06T11:53:31;4.70;99.90
18297;DHT22;18066;52.106;5.534;2024-01-06T11:56:00;5.70;99.90
18297;DHT22;18066;52.106;5.534;2024-01-06T11:58:27;5.50;99.90
18297;DHT22;18066;52.106;5.534;2024-01-06T12:00:57;5.50;99.90
18297;DHT22;18066;52.106;5.534;2024-01-06T12:03:23;5.40;99.90
18297;DHT22;18066;52.106;5.534;2024-01-06T12:05:59;4.10;99.90
18297;DHT22;18066;52.106;5.534;2024-01-06T12:08:26;5.70;99.90
18297;DHT22;18066;52.106;5.534;2024-01-06T12:11:02;4.60;99.90
18297;DHT22;18066;52.106;5.534;2024-01-06T12:13:29;5.90;99.90
18297;DHT22;18066;52.106;5.534;2024-01-06T12:15:57;4.50;99.90
18297;DHT22;18066;52.106;5.534;2024-01-06T12:18:25;4.60;99.90
18297;DHT22;18066;52.106;5.534;2024-01-06T12:20:52;5.90;99.90
18297;DHT22;18066;52.106;5.534;2024-01-06T12:23:25;5.70;99.90
18297;DHT22;18066;52.106;5.534;2024-01-06T12:25:53;5.10;99.90
18297;DHT22;18066;52.106;5.534;2024-01-06T12:28:20;5.70;99.90
18297;DHT22;18066;52.106;5.534;2024-01-06T12:30:47;4.60;99.90
18297;DHT22;18066;52.106;5.534;2024-01-06T12:33:20;5.20;99.90
18297;DHT22;18066;52.106;5.534;2024-01-06T12:36:14;4.60;99.90
18297;DHT22;18066;52.106;5.534;2024-01-06T12:41:57;5.10;99.90
18297;DHT22;18066;52.106;5.534;2024-01-06T12:42:54;5.10;99.90
18297;DHT22;18066;52.106;5.534;2024-01-06T12:45:30;5.40;99.90
18297;DHT22;18066;52.106;5.534;2024-01-06T12:47:57;5.50;99.90
18297;DHT22;18066;52.106;5.534;2024-01-06T12:50:25;5.00;99.90
18297;DHT22;18066;52.106;5.534;2024-01-06T12:52:52;4.70;99.90
18297;DHT22;18066;52.106;5.534;2024-01-06T12:55:19;4.80;99.90
18297;DHT22;18066;52.106;5.534;2024-01-06T12:57:46;5.20;99.90
18297;DHT22;18066;52.106;5.534;2024-01-06T13:00:14;5.40;99.90
18297;DHT22;18066;52.106;5.534;2024-01-06T13:02:39;4.50;99.90
18297;DHT22;18066;52.106;5.534;2024-01-06T13:05:07;4.30;99.90
18297;DHT22;18066;52.106;5.534;2024-01-06T13:07:36;4.50;99.90
18297;DHT22;18066;52.106;5.534;2024-01-06T13:10:04;5.70;99.90
18297;DHT22;18066;52.106;5.534;2024-01-06T13:12:31;4.50;99.90
18297;DHT22;18066;52.106;5.534;2024-01-06T13:14:58;5.60;99.90
18297;DHT22;18066;52.106;5.534;2024-01-06T13:17:26;5.90;99.90
18297;DHT22;18066;52.106;5.534;2024-01-06T13:19:53;3.90;99.90
18297;DHT22;18066;52.106;5.534;2024-01-06T13:22:20;5.40;99.90
18297;DHT22;18066;52.106;5.534;2024-01-06T13:24:49;5.20;99.90
18297;DHT22;18066;52.106;5.534;2024-01-06T13:27:16;3.90;99.90
18297;DHT22;18066;52.106;5.534;2024-01-06T13:29:42;5.20;99.90
18297;DHT22;18066;52.106;5.534;2024-01-06T13:32:09;4.90;99.90
18297;DHT22;18066;52.106;5.534;2024-01-06T13:34:39;5.20;99.90
18297;DHT22;18066;52.106;5.534;2024-01-06T13:37:05;5.30;99.90
18297;DHT22;18066;52.106;5.534;2024-01-06T13:39:33;4.30;99.90
18297;DHT22;18066;52.106;5.534;2024-01-06T13:42:01;4.10;99.90
18297;DHT22;18066;52.106;5.534;2024-01-06T13:44:29;3.90;99.90
18297;DHT22;18066;52.106;5.534;2024-01-06T13:46:58;5.00;99.90
18297;DHT22;18066;52.106;5.534;2024-01-06T13:49:43;4.30;99.90
18297;DHT22;18066;52.106;5.534;2024-01-06T13:52:16;4.30;99.90
18297;DHT22;18066;52.106;5.534;2024-01-06T13:54:43;4.70;99.90
18297;DHT22;18066;52.106;5.534;2024-01-06T13:57:11;4.30;99.90
18297;DHT22;18066;52.106;5.534;2024-01-06T13:59:38;4.90;99.90
18297;DHT22;18066;52.106;5.534;2024-01-06T14:02:08;5.20;99.90
18297;DHT22;18066;52.106;5.534;2024-01-06T14:04:35;5.10;99.90
18297;DHT22;18066;52.106;5.534;2024-01-06T14:07:02;5.10;99.90
18297;DHT22;18066;52.106;5.534;2024-01-06T14:09:30;4.50;99.90
18297;DHT22;18066;52.106;5.534;2024-01-06T14:11:57;5.60;99.90
18297;DHT22;18066;52.106;5.534;2024-01-06T14:14:25;4.00;99.90
18297;DHT22;18066;52.106;5.534;2024-01-06T14:16:52;3.70;99.90
18297;DHT22;18066;52.106;5.534;2024-01-06T14:19:19;5.30;99.90
18297;DHT22;18066;52.106;5.534;2024-01-06T14:21:46;3.70;99.90
18297;DHT22;18066;52.106;5.534;2024-01-06T14:24:13;4.90;99.90
18297;DHT22;18066;52.106;5.534;2024-01-06T14:26:39;5.20;99.90
18297;DHT22;18066;52.106;5.534;2024-01-06T14:29:07;3.80;99.90
18297;DHT22;18066;52.106;5.534;2024-01-06T14:31:36;3.80;99.90
18297;DHT22;18066;52.106;5.534;2024-01-06T14:34:02;5.00;99.90
18297;DHT22;18066;52.106;5.534;2024-01-06T14:36:29;5.00;99.90
18297;DHT22;18066;52.106;5.534;2024-01-06T14:38:56;5.20;99.90
18297;DHT22;18066;52.106;5.534;2024-01-06T14:41:23;5.30;99.90
18297;DHT22;18066;52.106;5.534;2024-01-06T14:43:50;4.70;99.90
18297;DHT22;18066;52.106;5.534;2024-01-06T14:46:17;3.80;99.90
18297;DHT22;18066;52.106;5.534;2024-01-06T14:48:45;4.60;99.90
18297;DHT22;18066;52.106;5.534;2024-01-06T14:51:12;4.00;99.90
18297;DHT22;18066;52.106;5.534;2024-01-06T14:53:39;4.10;99.90
18297;DHT22;18066;52.106;5.534;2024-01-06T14:56:06;4.00;99.90
18297;DHT22;18066;52.106;5.534;2024-01-06T14:58:32;5.20;99.90
18297;DHT22;18066;52.106;5.534;2024-01-06T15:00:59;4.80;99.90
18297;DHT22;18066;52.106;5.534;2024-01-06T15:03:26;5.00;99.90
18297;DHT22;18066;52.106;5.534;2024-01-06T15:05:54;3.80;99.90
18297;DHT22;18066;52.106;5.534;2024-01-06T15:08:21;3.90;99.90
18297;DHT22;18066;52.106;5.534;2024-01-06T15:10:48;3.90;99.90
18297;DHT22;18066;52.106;5.534;2024-01-06T15:13:15;5.00;99.90
18297;DHT22;18066;52.106;5.534;2024-01-06T15:15:42;4.90;99.90
18297;DHT22;18066;52.106;5.534;2024-01-06T15:18:09;4.60;99.90
18297;DHT22;18066;52.106;5.534;2024-01-06T15:20:36;3.80;99.90
18297;DHT22;18066;52.106;5.534;2024-01-06T15:23:04;4.90;99.90
18297;DHT22;18066;52.106;5.534;2024-01-06T15:25:31;4.90;99.90
18297;DHT22;18066;52.106;5.534;2024-01-06T15:27:58;5.40;99.90
18297;DHT22;18066;52.106;5.534;2024-01-06T15:30:24;3.60;99.90
18297;DHT22;18066;52.106;5.534;2024-01-06T15:32:51;4.30;99.90
18297;DHT22;18066;52.106;5.534;2024-01-06T15:35:18;3.60;99.90
18297;DHT22;18066;52.106;5.534;2024-01-06T15:37:53;3.70;99.90
18297;DHT22;18066;52.106;5.534;2024-01-06T15:40:22;4.10;99.90
18297;DHT22;18066;52.106;5.534;2024-01-06T15:42:49;5.00;99.90
18297;DHT22;18066;52.106;5.534;2024-01-06T15:45:16;5.20;99.90
18297;DHT22;18066;52.106;5.534;2024-01-06T15:47:43;5.00;99.90
18297;DHT22;18066;52.106;5.534;2024-01-06T15:50:09;5.20;99.90